Time;durP1;ratioP1;P1;durP2;ratioP2;P2;SDS_P1;SDS_P2;PMS_P1;PMS_P2;Temp;Humidity;BMP_temperature;BMP_pressure;BME280_temperature;BME280_humidity;BME280_pressure;Samples;Min_cycle;Max_cycle;Signal;HPM_P1;HPM_P2
2022/01/08 00:01:16;;;;;;;4.22;3.83;;;2.90;81.40;;;;;;4999661;28;20505;-68
2022/01/08 00:03:42;;;;;;;4.45;3.83;;;2.90;81.40;;;;;;4999590;28;20037;-68
2022/01/08 00:06:08;;;;;;;4.25;3.75;;;2.90;81.40;;;;;;4996960;28;20034;-68
2022/01/08 00:08:34;;;;;;;3.83;3.42;;;2.90;81.30;;;;;;4995017;28;20034;-68
2022/01/08 00:11:00;;;;;;;4.20;3.60;;;3.00;81.30;;;;;;4998317;28;20386;-68
2022/01/08 00:13:26;;;;;;;4.15;3.60;;;3.00;81.20;;;;;;5000199;28;20623;-68
2022/01/08 00:15:51;;;;;;;4.65;3.35;;;3.00;81.20;;;;;;4995884;28;20026;-68
2022/01/08 00:18:17;;;;;;;4.82;3.45;;;3.00;81.10;;;;;;5002806;28;20041;-67
2022/01/08 00:20:43;;;;;;;4.10;3.30;;;3.10;81.10;;;;;;5002282;28;20042;-68
2022/01/08 00:23:10;;;;;;;4.00;3.60;;;3.10;80.90;;;;;;4998217;28;20022;-68
2022/01/08 00:25:36;;;;;;;3.60;3.30;;;3.10;80.90;;;;;;4998140;28;20112;-68
2022/01/08 00:28:01;;;;;;;4.78;3.85;;;3.10;80.80;;;;;;5002048;28;20668;-71
2022/01/08 00:30:30;;;;;;;4.50;3.63;;;3.10;80.70;;;;;;5001979;28;20513;-66
2022/01/08 00:32:56;;;;;;;5.28;3.55;;;3.10;80.60;;;;;;4999818;28;20026;-68
2022/01/08 00:35:23;;;;;;;4.85;4.00;;;3.10;80.40;;;;;;4994726;28;20050;-68
2022/01/08 00:37:49;;;;;;;4.38;3.90;;;3.10;80.40;;;;;;4995033;28;20033;-68
2022/01/08 00:40:14;;;;;;;4.10;3.70;;;3.10;80.30;;;;;;4997910;28;20041;-67
2022/01/08 00:42:40;;;;;;;4.78;3.92;;;3.10;80.30;;;;;;4995354;28;20129;-68
2022/01/08 00:45:06;;;;;;;5.72;4.25;;;3.10;80.20;;;;;;4997615;28;20037;-67
2022/01/08 00:47:32;;;;;;;4.55;3.95;;;3.10;80.20;;;;;;5001762;28;20037;-68
2022/01/08 00:49:58;;;;;;;6.40;4.32;;;3.00;80.00;;;;;;5000902;28;20041;-68
2022/01/08 00:52:24;;;;;;;5.68;4.38;;;3.00;80.10;;;;;;4992365;28;20041;-68
2022/01/08 00:54:49;;;;;;;5.95;4.65;;;3.00;80.10;;;;;;4993898;28;20049;-68
2022/01/08 00:57:15;;;;;;;4.95;4.45;;;2.90;80.10;;;;;;4991701;28;20042;-68
2022/01/08 00:59:41;;;;;;;4.70;4.30;;;2.90;80.20;;;;;;4999623;28;20033;-68
2022/01/08 01:02:06;;;;;;;5.15;4.65;;;2.90;80.20;;;;;;4997935;28;20156;-68
2022/01/08 01:04:32;;;;;;;5.20;4.63;;;2.90;80.40;;;;;;4993260;28;20038;-68
2022/01/08 01:06:58;;;;;;;5.82;5.05;;;2.90;80.50;;;;;;4994657;28;20543;-66
2022/01/08 01:09:24;;;;;;;6.78;5.28;;;2.80;80.60;;;;;;4993822;28;20041;-68
2022/01/08 01:11:51;;;;;;;6.72;5.40;;;2.80;80.60;;;;;;4993738;28;20037;-68
2022/01/08 01:14:16;;;;;;;6.22;4.90;;;2.80;80.70;;;;;;4992483;28;21804;-68
2022/01/08 01:16:42;;;;;;;6.55;4.78;;;2.80;80.70;;;;;;4993981;28;20121;-68
2022/01/08 01:19:08;;;;;;;5.35;4.80;;;2.80;80.70;;;;;;4996113;28;20046;-68
2022/01/08 01:21:33;;;;;;;5.80;4.85;;;2.80;80.70;;;;;;4991626;28;20658;-68
2022/01/08 01:24:06;;;;;;;5.60;4.60;;;2.80;80.70;;;;;;4993228;28;20128;-68
2022/01/08 01:26:32;;;;;;;6.57;4.60;;;2.80;80.70;;;;;;4994424;28;20059;-67
2022/01/08 01:29:14;;;;;;;5.22;4.38;;;2.80;80.70;;;;;;5002616;28;20442;-67
2022/01/08 01:43:04;;;;;;;5.22;4.35;;;2.70;81.80;;;;;;4994180;28;20112;-68
2022/01/08 01:48:06;;;;;;;5.13;4.53;;;2.70;81.00;;;;;;4998041;28;20517;-68
2022/01/08 01:50:32;;;;;;;6.35;4.65;;;2.70;81.00;;;;;;4992518;28;20281;-68
2022/01/08 01:52:57;;;;;;;5.60;4.65;;;2.70;81.10;;;;;;4992726;28;20034;-68
2022/01/08 01:55:23;;;;;;;4.97;4.47;;;2.70;81.20;;;;;;4995175;28;20069;-68
2022/01/08 01:57:49;;;;;;;5.13;4.55;;;2.70;81.30;;;;;;5003380;28;20038;-68
2022/01/08 02:00:15;;;;;;;7.68;4.70;;;2.80;81.30;;;;;;4992742;28;20045;-68
2022/01/08 02:02:40;;;;;;;5.35;4.65;;;2.80;81.40;;;;;;4998016;28;20030;-68
2022/01/08 02:05:07;;;;;;;5.25;4.57;;;2.80;81.30;;;;;;4995566;28;20110;-68
2022/01/08 02:07:33;;;;;;;7.00;5.10;;;2.80;81.10;;;;;;4997619;28;20026;-67
2022/01/08 02:09:59;;;;;;;5.95;4.18;;;2.80;81.10;;;;;;4996941;28;20061;-68
2022/01/08 02:12:24;;;;;;;6.63;4.30;;;2.80;81.00;;;;;;4996208;28;20061;-68
2022/01/08 02:14:50;;;;;;;4.97;4.47;;;2.80;81.10;;;;;;4995262;28;20505;-67
2022/01/08 02:17:16;;;;;;;5.45;4.60;;;2.80;81.00;;;;;;4998082;28;20042;-68
2022/01/08 02:19:43;;;;;;;5.05;4.55;;;2.80;81.00;;;;;;5002698;28;20034;-68
2022/01/08 02:22:15;;;;;;;5.32;4.40;;;2.80;80.90;;;;;;5001456;28;20041;-67
2022/01/08 02:24:42;;;;;;;6.28;4.82;;;2.80;80.90;;;;;;5006470;28;20516;-68
2022/01/08 02:27:08;;;;;;;5.20;4.25;;;2.70;80.90;;;;;;5006054;28;20034;-67
2022/01/08 02:29:34;;;;;;;6.88;4.35;;;2.80;80.90;;;;;;5004263;28;20034;-67
2022/01/08 02:32:14;;;;;;;5.60;4.50;;;2.80;80.90;;;;;;5004272;28;20085;-67
2022/01/08 02:34:41;;;;;;;5.50;4.32;;;2.80;81.00;;;;;;4999841;28;20045;-67
2022/01/08 02:37:08;;;;;;;4.40;3.97;;;2.80;80.90;;;;;;4997998;28;20030;-68
2022/01/08 02:39:42;;;;;;;4.55;3.97;;;2.80;80.90;;;;;;4997296;28;20026;-68
2022/01/08 02:42:13;;;;;;;5.47;4.23;;;2.80;81.00;;;;;;5000440;28;20379;-68
2022/01/08 02:44:44;;;;;;;5.18;4.15;;;2.70;80.90;;;;;;5002825;28;20871;-67
2022/01/08 02:47:12;;;;;;;5.30;3.83;;;2.80;81.10;;;;;;4999150;28;20264;-68
2022/01/08 02:49:38;;;;;;;4.55;3.88;;;2.80;81.20;;;;;;5001491;28;20045;-67
2022/01/08 02:52:05;;;;;;;5.50;3.92;;;2.80;81.10;;;;;;5001928;28;20445;-68
2022/01/08 02:54:30;;;;;;;4.63;3.90;;;2.80;81.10;;;;;;5018925;28;20513;-68
2022/01/08 02:56:56;;;;;;;6.30;4.05;;;2.80;81.00;;;;;;4998220;28;20041;-64
2022/01/08 02:59:22;;;;;;;4.65;3.80;;;2.80;80.90;;;;;;5004255;28;20029;-68
2022/01/08 03:01:47;;;;;;;4.45;3.90;;;2.80;80.90;;;;;;4999781;28;20109;-67
2022/01/08 03:04:14;;;;;;;4.63;3.78;;;2.80;80.90;;;;;;5001510;28;20030;-67
2022/01/08 03:06:40;;;;;;;10.52;6.00;;;2.70;80.90;;;;;;4996697;28;20069;-68
2022/01/08 03:09:05;;;;;;;25.80;15.13;;;2.70;80.80;;;;;;4998543;28;20111;-68
2022/01/08 03:11:32;;;;;;;5.88;4.97;;;2.70;80.90;;;;;;5000991;28;20741;-68
2022/01/08 03:13:58;;;;;;;4.72;3.80;;;2.70;80.90;;;;;;4999614;28;20038;-68
2022/01/08 03:16:23;;;;;;;3.63;3.33;;;2.70;80.90;;;;;;5001364;28;20245;-68
2022/01/08 03:18:50;;;;;;;3.70;3.40;;;2.70;80.90;;;;;;5001280;28;20141;-68
2022/01/08 03:21:19;;;;;;;3.50;3.20;;;2.70;81.00;;;;;;4998869;28;20038;-67
2022/01/08 03:23:53;;;;;;;3.88;3.10;;;2.70;81.10;;;;;;5001577;28;20033;-68
2022/01/08 03:26:20;;;;;;;4.20;3.50;;;2.60;81.20;;;;;;4997786;28;20501;-68
2022/01/08 03:28:46;;;;;;;4.18;2.95;;;2.60;81.30;;;;;;5002144;28;20034;-68
2022/01/08 03:31:14;;;;;;;3.50;3.10;;;2.60;81.30;;;;;;5004457;28;20034;-68
2022/01/08 03:33:41;;;;;;;4.05;3.20;;;2.60;81.40;;;;;;5005422;28;20038;-67
2022/01/08 03:36:07;;;;;;;3.50;3.03;;;2.60;81.60;;;;;;5003067;28;20037;-66
2022/01/08 03:38:34;;;;;;;3.40;3.10;;;2.50;81.70;;;;;;5001794;28;20034;-68
2022/01/08 03:41:00;;;;;;;3.80;3.13;;;2.50;81.80;;;;;;5004787;28;20753;-68
2022/01/08 03:43:26;;;;;;;3.72;3.30;;;2.50;82.00;;;;;;5003177;28;20030;-67
2022/01/08 03:45:52;;;;;;;5.78;2.95;;;2.50;82.10;;;;;;5006402;28;20096;-68
2022/01/08 03:50:43;;;;;;;2.88;2.65;;;2.50;82.30;;;;;;5004755;28;20038;-68
2022/01/08 03:53:09;;;;;;;3.78;2.63;;;2.50;82.40;;;;;;5002470;28;20121;-68
2022/01/08 03:55:35;;;;;;;3.03;2.40;;;2.50;82.30;;;;;;4999870;28;20469;-67
2022/01/08 03:58:01;;;;;;;2.38;2.17;;;2.50;82.50;;;;;;4999948;28;20037;-67
2022/01/08 04:00:26;;;;;;;2.05;1.85;;;2.50;82.70;;;;;;5018198;28;20073;-68
2022/01/08 04:02:53;;;;;;;1.98;1.80;;;2.60;82.50;;;;;;5000186;28;20104;-68
2022/01/08 04:05:19;;;;;;;1.83;1.73;;;2.60;82.60;;;;;;4996998;28;20034;-67
2022/01/08 04:07:45;;;;;;;3.63;1.60;;;2.60;82.80;;;;;;4995654;28;20453;-67
2022/01/08 04:10:11;;;;;;;1.70;1.38;;;2.70;82.80;;;;;;4997460;28;20080;-68
2022/01/08 04:12:44;;;;;;;2.67;1.48;;;2.60;82.80;;;;;;4994391;28;20535;-67
2022/01/08 04:17:52;;;;;;;2.00;1.30;;;2.60;83.00;;;;;;5004045;28;20058;-68
2022/01/08 04:20:19;;;;;;;1.45;1.35;;;2.60;83.20;;;;;;5004843;28;20033;-68
2022/01/08 04:22:47;;;;;;;1.65;1.50;;;2.60;83.30;;;;;;5002076;28;20053;-68
2022/01/08 04:25:14;;;;;;;1.92;1.40;;;2.70;83.40;;;;;;4994215;28;20038;-68
2022/01/08 04:27:40;;;;;;;2.58;1.20;;;2.70;83.20;;;;;;5000644;28;20038;-68
2022/01/08 04:30:06;;;;;;;1.10;1.00;;;2.70;83.40;;;;;;4999596;28;20079;-67
2022/01/08 04:32:32;;;;;;;1.20;1.10;;;2.70;83.40;;;;;;5000211;28;20038;-68
2022/01/08 04:34:58;;;;;;;1.35;0.95;;;2.80;83.40;;;;;;4998667;28;20057;-68
2022/01/08 04:37:23;;;;;;;1.88;1.10;;;2.80;83.40;;;;;;5002574;28;20493;-68
2022/01/08 04:39:49;;;;;;;1.10;1.00;;;2.80;83.30;;;;;;4993527;28;20037;-68
2022/01/08 04:42:15;;;;;;;1.42;1.08;;;2.80;83.40;;;;;;5002502;28;20910;-68
2022/01/08 04:44:40;;;;;;;0.80;0.80;;;2.80;83.60;;;;;;4996973;28;20137;-68
2022/01/08 04:47:06;;;;;;;1.30;1.20;;;2.80;83.50;;;;;;4999316;28;20034;-68
2022/01/08 04:49:32;;;;;;;1.58;0.90;;;2.80;83.70;;;;;;5003038;28;20026;-69
2022/01/08 04:51:57;;;;;;;1.23;1.13;;;2.90;84.40;;;;;;4997250;28;20033;-68
2022/01/08 04:54:23;;;;;;;0.82;0.80;;;2.90;83.50;;;;;;5001108;28;20030;-68
2022/01/08 04:56:50;;;;;;;0.90;0.73;;;2.90;82.70;;;;;;4996759;28;20033;-69
2022/01/08 04:59:16;;;;;;;1.20;0.90;;;2.90;83.50;;;;;;4997583;28;20690;-68
2022/01/08 05:01:43;;;;;;;1.33;1.00;;;3.00;83.40;;;;;;5001458;28;20037;-67
2022/01/08 05:04:08;;;;;;;1.67;0.80;;;3.00;83.30;;;;;;4998744;28;20489;-68
2022/01/08 05:06:34;;;;;;;0.90;0.90;;;3.00;83.30;;;;;;5002743;28;20061;-68
2022/01/08 05:09:00;;;;;;;2.55;1.10;;;3.00;83.30;;;;;;4996539;28;20176;-68
2022/01/08 05:11:27;;;;;;;1.05;0.98;;;3.00;83.30;;;;;;4986857;28;20517;-68
2022/01/08 05:13:54;;;;;;;1.13;1.02;;;3.00;83.30;;;;;;4993770;28;20652;-68
2022/01/08 05:16:20;;;;;;;0.95;0.75;;;3.10;83.30;;;;;;5000015;28;20034;-68
2022/01/08 05:18:46;;;;;;;1.10;0.93;;;3.20;83.30;;;;;;5000285;28;20469;-68
2022/01/08 05:23:38;;;;;;;0.93;0.73;;;3.20;83.30;;;;;;5000980;28;20026;-68
2022/01/08 05:26:03;;;;;;;0.80;0.80;;;3.20;83.20;;;;;;5001822;28;20060;-68
2022/01/08 05:28:29;;;;;;;0.90;0.90;;;3.30;84.20;;;;;;5000372;28;20034;-68
2022/01/08 05:30:56;;;;;;;0.80;0.80;;;3.30;83.20;;;;;;4997617;28;20175;-68
2022/01/08 05:33:22;;;;;;;1.08;1.00;;;3.30;83.10;;;;;;4997280;28;20464;-68
2022/01/08 05:35:48;;;;;;;1.25;0.90;;;3.30;83.10;;;;;;4998562;28;20033;-68
2022/01/08 05:38:14;;;;;;;1.77;1.30;;;3.30;83.10;;;;;;4998748;28;20096;-68
2022/01/08 05:40:39;;;;;;;2.72;1.50;;;3.30;83.00;;;;;;5005772;28;20054;-68
2022/01/08 05:43:05;;;;;;;2.80;2.28;;;3.40;83.10;;;;;;4997807;28;20038;-67
2022/01/08 05:45:30;;;;;;;2.00;1.20;;;3.40;83.30;;;;;;5006934;28;20053;-67
2022/01/08 05:47:56;;;;;;;1.90;1.70;;;3.40;83.20;;;;;;5001316;28;20053;-68
2022/01/08 05:50:22;;;;;;;3.00;1.70;;;3.40;83.10;;;;;;5003830;28;20168;-68
2022/01/08 05:52:48;;;;;;;1.50;1.38;;;3.40;83.00;;;;;;5009642;28;20044;-68
2022/01/08 05:55:15;;;;;;;2.47;2.00;;;3.40;84.00;;;;;;5006298;28;20030;-68
2022/01/08 05:57:41;;;;;;;7.10;4.40;;;3.40;83.20;;;;;;5000461;28;20493;-68
2022/01/08 06:00:08;;;;;;;2.00;1.50;;;3.50;83.20;;;;;;5003036;28;20125;-67
2022/01/08 06:02:35;;;;;;;3.70;2.60;;;3.50;83.20;;;;;;4994828;28;20034;-68
2022/01/08 06:05:00;;;;;;;1.40;1.30;;;3.50;83.20;;;;;;4996551;28;20053;-68
2022/01/08 06:07:26;;;;;;;2.30;1.33;;;3.50;83.20;;;;;;4995073;28;20089;-67
2022/01/08 06:09:51;;;;;;;2.28;2.05;;;3.50;83.10;;;;;;4999583;28;20699;-67
2022/01/08 06:12:17;;;;;;;1.92;1.50;;;3.60;83.00;;;;;;4995925;28;20058;-68
2022/01/08 06:14:43;;;;;;;1.92;1.83;;;3.60;83.00;;;;;;4999522;28;20041;-68
2022/01/08 06:17:08;;;;;;;0.90;0.88;;;3.50;83.00;;;;;;5001693;28;20668;-68
2022/01/08 06:19:34;;;;;;;1.65;1.55;;;3.60;83.00;;;;;;5002122;28;20061;-67
2022/01/08 06:22:01;;;;;;;2.10;1.30;;;3.60;82.90;;;;;;5002689;28;20742;-68
2022/01/08 06:24:26;;;;;;;1.60;1.15;;;3.60;82.90;;;;;;5002732;28;20070;-68
2022/01/08 06:26:52;;;;;;;1.73;1.30;;;3.60;82.90;;;;;;5002159;28;20060;-68
2022/01/08 06:29:18;;;;;;;1.60;1.40;;;3.60;82.80;;;;;;5000402;28;20038;-68
2022/01/08 06:31:43;;;;;;;2.25;1.40;;;3.70;82.80;;;;;;4995750;28;20043;-68
2022/01/08 06:34:09;;;;;;;1.67;1.15;;;3.70;82.60;;;;;;4993053;28;20026;-68
2022/01/08 06:36:35;;;;;;;1.65;1.38;;;3.70;82.60;;;;;;4993145;28;20034;-67
2022/01/08 06:39:00;;;;;;;1.20;1.00;;;3.70;82.50;;;;;;4993216;28;20041;-68
2022/01/08 06:41:29;;;;;;;1.73;1.20;;;3.70;82.50;;;;;;4996971;28;20062;-69
2022/01/08 06:43:54;;;;;;;3.53;2.20;;;3.80;82.50;;;;;;4993198;28;20054;-68
2022/01/08 06:46:23;;;;;;;1.25;1.10;;;3.80;82.50;;;;;;4999268;28;20672;-68
2022/01/08 06:48:49;;;;;;;1.35;1.10;;;3.80;82.50;;;;;;4999242;28;20216;-67
2022/01/08 06:51:15;;;;;;;1.42;1.33;;;3.80;82.60;;;;;;4990886;28;20501;-68
2022/01/08 06:53:41;;;;;;;1.40;1.30;;;3.80;82.50;;;;;;4997348;28;20033;-68
2022/01/08 06:56:06;;;;;;;1.38;1.27;;;3.80;82.60;;;;;;4996840;28;20433;-67
2022/01/08 06:58:32;;;;;;;0.80;0.70;;;3.80;82.50;;;;;;4995077;28;20382;-67
2022/01/08 07:00:58;;;;;;;0.80;0.60;;;3.80;82.50;;;;;;4994195;28;20121;-68
2022/01/08 07:03:24;;;;;;;0.73;0.55;;;3.80;82.80;;;;;;4991439;28;20030;-67
2022/01/08 07:05:49;;;;;;;1.05;0.80;;;3.80;83.00;;;;;;4996578;28;20037;-67
2022/01/08 07:08:15;;;;;;;0.40;0.40;;;3.80;82.90;;;;;;4995794;28;20034;-68
2022/01/08 07:10:41;;;;;;;0.50;0.43;;;3.80;83.00;;;;;;4991948;28;20076;-68
2022/01/08 07:13:07;;;;;;;0.40;0.40;;;3.80;83.00;;;;;;5000456;28;20052;-67
2022/01/08 07:15:33;;;;;;;1.20;0.80;;;3.80;83.00;;;;;;4993876;28;20500;-66
2022/01/08 07:17:58;;;;;;;0.82;0.40;;;3.70;82.80;;;;;;4995723;28;20043;-68
2022/01/08 07:20:24;;;;;;;0.47;0.47;;;3.80;82.90;;;;;;4994495;28;20062;-68
2022/01/08 07:22:50;;;;;;;0.70;0.60;;;3.70;83.50;;;;;;4997015;28;20041;-68
2022/01/08 07:25:16;;;;;;;0.90;0.60;;;3.70;82.60;;;;;;5009484;28;20051;-67
2022/01/08 07:27:42;;;;;;;0.82;0.73;;;3.70;82.50;;;;;;4999948;28;20115;-68
2022/01/08 07:30:10;;;;;;;0.88;0.80;;;3.70;82.40;;;;;;4993435;28;20715;-67
2022/01/08 07:32:47;;;;;;;1.75;1.00;;;3.70;82.30;;;;;;4994569;28;20046;-67
2022/01/08 07:35:15;;;;;;;2.70;1.10;;;3.70;82.10;;;;;;4996086;28;20396;-67
2022/01/08 07:37:41;;;;;;;0.65;0.47;;;3.70;82.10;;;;;;4993566;28;20042;-67
2022/01/08 07:40:09;;;;;;;0.68;0.60;;;3.70;81.80;;;;;;4999209;28;20084;-67
2022/01/08 07:42:35;;;;;;;0.50;0.50;;;3.70;81.70;;;;;;4994446;28;20100;-67
2022/01/08 07:45:01;;;;;;;1.13;1.10;;;3.70;81.60;;;;;;4990009;28;20678;-68
2022/01/08 07:47:26;;;;;;;0.52;0.43;;;3.60;81.70;;;;;;4985814;28;20403;-67
2022/01/08 07:49:52;;;;;;;0.60;0.52;;;3.60;81.60;;;;;;4997012;28;20030;-67
2022/01/08 07:52:18;;;;;;;1.02;0.75;;;3.60;81.40;;;;;;5001831;28;20030;-68
2022/01/08 07:54:43;;;;;;;1.33;0.70;;;3.60;81.40;;;;;;4999434;28;20405;-67
2022/01/08 07:57:09;;;;;;;0.63;0.40;;;3.60;81.30;;;;;;5001536;28;20084;-67
2022/01/08 07:59:34;;;;;;;1.42;0.57;;;3.60;81.40;;;;;;5000251;28;20037;-67
2022/01/08 08:02:00;;;;;;;1.42;0.40;;;3.50;81.60;;;;;;4996198;28;20493;-66
2022/01/08 08:04:26;;;;;;;0.60;0.60;;;3.50;82.20;;;;;;4999573;28;20699;-68
2022/01/08 08:06:52;;;;;;;0.60;0.57;;;3.40;82.60;;;;;;4999896;28;20084;-67
2022/01/08 08:09:18;;;;;;;1.10;0.70;;;3.40;82.80;;;;;;5000445;28;20061;-68
2022/01/08 08:11:44;;;;;;;0.60;0.60;;;3.40;83.00;;;;;;4995119;28;20076;-68
2022/01/08 08:14:09;;;;;;;0.85;0.80;;;3.30;83.20;;;;;;5000975;28;20034;-68
2022/01/08 08:16:35;;;;;;;2.85;1.17;;;3.30;83.50;;;;;;4997126;28;20461;-68
2022/01/08 08:19:01;;;;;;;1.10;1.00;;;3.30;83.50;;;;;;5000091;28;20463;-67
2022/01/08 08:21:27;;;;;;;1.60;1.17;;;3.20;83.50;;;;;;4998485;28;20046;-68
2022/01/08 08:23:53;;;;;;;1.42;1.30;;;3.20;83.20;;;;;;5001879;28;20030;-68
2022/01/08 08:26:19;;;;;;;2.53;1.50;;;3.20;83.00;;;;;;4997446;28;20137;-68
2022/01/08 08:28:45;;;;;;;2.80;1.20;;;3.20;82.80;;;;;;4998727;28;20034;-67
2022/01/08 08:31:11;;;;;;;1.48;1.20;;;3.20;82.60;;;;;;4999219;28;20497;-68
2022/01/08 08:33:38;;;;;;;2.65;1.10;;;3.20;82.30;;;;;;5000544;28;20053;-66
2022/01/08 08:36:04;;;;;;;1.95;1.55;;;3.30;81.90;;;;;;5002265;28;20042;-68
2022/01/08 08:38:30;;;;;;;1.95;1.70;;;3.30;81.70;;;;;;5002488;28;20612;-68
2022/01/08 08:40:56;;;;;;;2.90;1.95;;;3.30;81.70;;;;;;4994282;28;20136;-68
2022/01/08 08:43:22;;;;;;;3.72;2.00;;;3.30;81.70;;;;;;5001982;28;20045;-69
2022/01/08 08:45:47;;;;;;;2.63;2.00;;;3.40;81.60;;;;;;4995979;28;20037;-68
2022/01/08 08:48:13;;;;;;;2.25;2.05;;;3.40;81.60;;;;;;5000614;28;20519;-69
2022/01/08 08:50:39;;;;;;;2.72;2.40;;;3.50;81.10;;;;;;5001719;28;20505;-69
2022/01/08 08:53:05;;;;;;;3.25;2.10;;;3.50;80.60;;;;;;5002674;28;20050;-68
2022/01/08 08:55:31;;;;;;;3.58;2.50;;;3.50;80.50;;;;;;4996823;28;20039;-69
2022/01/08 08:57:56;;;;;;;3.90;2.72;;;3.50;80.40;;;;;;5001461;28;20055;-69
2022/01/08 09:00:22;;;;;;;4.68;3.20;;;3.50;80.20;;;;;;5002879;28;20120;-67
2022/01/08 09:02:47;;;;;;;3.70;2.92;;;3.60;80.30;;;;;;5001090;28;20394;-68
2022/01/08 09:05:13;;;;;;;3.15;2.85;;;3.60;80.20;;;;;;5003638;28;20030;-69
2022/01/08 09:07:42;;;;;;;4.15;3.10;;;3.60;80.30;;;;;;4999328;28;20475;-69
2022/01/08 09:10:09;;;;;;;5.55;3.53;;;3.50;80.40;;;;;;4999979;28;20062;-68
2022/01/08 09:12:36;;;;;;;6.63;4.22;;;3.50;80.60;;;;;;4999043;28;20048;-68
2022/01/08 09:15:04;;;;;;;6.35;4.45;;;3.40;80.80;;;;;;5004278;28;20096;-68
2022/01/08 09:17:29;;;;;;;5.95;3.50;;;3.40;81.00;;;;;;5001416;28;20045;-68
2022/01/08 09:19:55;;;;;;;3.92;3.20;;;3.40;81.20;;;;;;5005177;28;20030;-68
2022/01/08 09:22:20;;;;;;;3.92;2.95;;;3.40;81.40;;;;;;5006699;28;20092;-69
2022/01/08 09:24:47;;;;;;;4.47;2.60;;;3.40;81.60;;;;;;5006250;28;20038;-69
2022/01/08 09:27:12;;;;;;;4.57;2.58;;;3.40;81.60;;;;;;4997159;28;20041;-68
2022/01/08 09:29:38;;;;;;;3.80;2.45;;;3.40;81.60;;;;;;5000702;28;20038;-69
2022/01/08 09:32:06;;;;;;;2.22;1.98;;;3.50;81.60;;;;;;5001635;28;20038;-68
2022/01/08 09:34:32;;;;;;;3.35;2.10;;;3.50;81.80;;;;;;5004820;28;20034;-69
2022/01/08 09:36:58;;;;;;;3.35;1.98;;;3.50;81.80;;;;;;4995718;28;20046;-69
2022/01/08 09:39:25;;;;;;;3.22;1.83;;;3.60;81.60;;;;;;5002089;28;20030;-68
2022/01/08 09:41:51;;;;;;;1.83;1.58;;;3.60;81.40;;;;;;5007861;28;20037;-68
2022/01/08 09:44:19;;;;;;;2.70;2.30;;;3.60;81.00;;;;;;4998592;28;20087;-68
2022/01/08 09:46:45;;;;;;;3.45;1.63;;;3.60;80.60;;;;;;5004758;28;20050;-69
2022/01/08 09:49:11;;;;;;;3.58;2.67;;;3.60;79.20;;;;;;5006003;28;20417;-68
2022/01/08 09:51:36;;;;;;;2.72;1.52;;;3.60;79.20;;;;;;5001594;28;20033;-68
2022/01/08 09:54:02;;;;;;;2.65;1.48;;;3.60;78.10;;;;;;5006267;28;20038;-68
2022/01/08 09:56:31;;;;;;;3.00;1.70;;;3.60;77.10;;;;;;5002230;28;20567;-69
2022/01/08 09:58:57;;;;;;;3.20;1.55;;;3.70;77.20;;;;;;5005578;28;20057;-68
2022/01/08 10:01:34;;;;;;;1.88;1.40;;;3.60;77.10;;;;;;5003291;28;20062;-68
2022/01/08 10:04:02;;;;;;;1.77;1.55;;;3.60;76.20;;;;;;5008054;28;20044;-69
2022/01/08 10:06:30;;;;;;;3.30;1.60;;;3.60;76.60;;;;;;5007948;28;20026;-68
2022/01/08 10:08:56;;;;;;;1.73;1.50;;;3.60;76.90;;;;;;5007039;28;20568;-69
2022/01/08 10:11:23;;;;;;;3.45;1.90;;;3.60;76.80;;;;;;5003586;28;20088;-69
2022/01/08 10:13:59;;;;;;;3.97;1.92;;;3.60;76.70;;;;;;5008071;28;20085;-68
2022/01/08 10:19:28;;;;;;;2.65;2.20;;;3.60;76.10;;;;;;4985075;28;20034;-68
2022/01/08 10:21:55;;;;;;;4.50;2.85;;;3.60;76.40;;;;;;5001675;28;20100;-69
2022/01/08 10:24:26;;;;;;;6.00;2.20;;;3.60;76.60;;;;;;5005468;28;20715;-68
2022/01/08 10:27:04;;;;;;;2.00;1.73;;;3.60;76.70;;;;;;5006655;28;20652;-68
2022/01/08 10:29:30;;;;;;;2.65;1.80;;;3.60;76.40;;;;;;5007043;28;20073;-69
2022/01/08 10:31:59;;;;;;;3.10;2.05;;;3.60;76.60;;;;;;5005366;28;20123;-68
2022/01/08 10:34:27;;;;;;;8.48;3.95;;;3.60;76.30;;;;;;5005164;28;20405;-69
2022/01/08 10:37:00;;;;;;;4.32;1.85;;;3.70;76.40;;;;;;5004015;28;20035;-68
2022/01/08 10:39:35;;;;;;;5.07;2.55;;;3.70;76.00;;;;;;5002573;28;20571;-68
2022/01/08 10:42:16;;;;;;;3.05;1.70;;;3.70;75.90;;;;;;5002547;28;20034;-68
2022/01/08 10:44:46;;;;;;;9.10;2.88;;;3.70;75.60;;;;;;5002175;28;20034;-68
2022/01/08 10:47:17;;;;;;;4.13;2.25;;;3.70;75.90;;;;;;5004330;28;20030;-67
2022/01/08 10:50:02;;;;;;;4.75;2.65;;;3.60;75.60;;;;;;5004414;28;20124;-67
2022/01/08 10:52:39;;;;;;;4.07;1.50;;;3.70;75.50;;;;;;5000948;28;20509;-67
2022/01/08 10:55:05;;;;;;;3.70;1.20;;;3.70;75.00;;;;;;5005219;28;20045;-67
2022/01/08 10:57:39;;;;;;;4.13;1.48;;;3.70;75.20;;;;;;5006017;28;20057;-67
2022/01/08 11:00:11;;;;;;;4.13;1.45;;;3.70;74.30;;;;;;5006451;28;20034;-70
2022/01/08 11:02:38;;;;;;;9.45;2.35;;;3.60;74.20;;;;;;5004276;28;20460;-68
2022/01/08 11:05:09;;;;;;;5.60;2.40;;;3.70;74.10;;;;;;5001806;28;20292;-67
2022/01/08 11:07:36;;;;;;;3.10;1.48;;;3.70;73.40;;;;;;5006591;28;20397;-68
2022/01/08 11:10:16;;;;;;;2.28;1.35;;;3.70;73.90;;;;;;5004221;28;20057;-68
2022/01/08 11:12:44;;;;;;;2.65;1.27;;;3.60;73.10;;;;;;4995000;28;20088;-68
2022/01/08 11:17:55;;;;;;;1.42;0.88;;;3.70;72.10;;;;;;4999878;28;20033;-67
2022/01/08 11:20:26;;;;;;;2.45;0.80;;;3.80;71.00;;;;;;5002724;28;20076;-68
2022/01/08 11:22:55;;;;;;;2.22;1.10;;;3.80;70.50;;;;;;5002053;28;20034;-70
2022/01/08 11:25:25;;;;;;;2.92;0.98;;;3.80;71.90;;;;;;5003141;28;20042;-68
2022/01/08 11:28:14;;;;;;;1.88;1.17;;;3.80;71.00;;;;;;4996453;28;20137;-68
2022/01/08 11:30:41;;;;;;;1.90;1.00;;;3.90;69.80;;;;;;5000965;28;20046;-68
2022/01/08 11:33:14;;;;;;;2.13;1.20;;;3.80;70.60;;;;;;5016485;28;20064;-68
2022/01/08 11:35:41;;;;;;;2.17;1.23;;;3.90;71.00;;;;;;4996550;28;20333;-70
2022/01/08 11:38:08;;;;;;;1.20;0.70;;;3.90;70.80;;;;;;5004464;28;20033;-67
2022/01/08 11:40:37;;;;;;;3.17;2.00;;;3.90;71.40;;;;;;5004337;28;20125;-68
2022/01/08 11:43:05;;;;;;;3.03;2.05;;;3.90;71.80;;;;;;5002268;28;20697;-68
2022/01/08 11:45:34;;;;;;;1.58;1.10;;;4.00;71.70;;;;;;4996424;28;20581;-67
2022/01/08 11:48:04;;;;;;;4.38;1.88;;;4.00;72.20;;;;;;5002833;28;20145;-68
2022/01/08 11:50:32;;;;;;;5.57;3.28;;;4.00;72.30;;;;;;4999104;28;20121;-68
2022/01/08 11:53:24;;;;;;;3.75;2.25;;;4.00;72.50;;;;;;4992951;28;20148;-68
2022/01/08 11:55:54;;;;;;;4.80;2.20;;;4.10;71.40;;;;;;5006016;28;20045;-68
2022/01/08 11:58:23;;;;;;;3.40;1.30;;;4.10;72.40;;;;;;5000434;28;20036;-68
2022/01/08 12:00:56;;;;;;;3.45;1.20;;;4.20;71.10;;;;;;5000452;28;20048;-68
2022/01/08 12:03:32;;;;;;;1.42;1.10;;;4.20;71.00;;;;;;4997647;28;20110;-69
2022/01/08 12:06:18;;;;;;;3.38;1.52;;;4.10;71.40;;;;;;4995580;28;20409;-67
2022/01/08 12:08:57;;;;;;;2.35;1.23;;;4.20;70.50;;;;;;4988992;28;20064;-67
2022/01/08 12:11:27;;;;;;;3.53;1.33;;;4.20;71.00;;;;;;5000715;28;20536;-68
2022/01/08 12:13:52;;;;;;;2.33;1.35;;;4.20;71.60;;;;;;5002418;28;20045;-68
2022/01/08 12:16:32;;;;;;;3.78;1.70;;;4.20;71.30;;;;;;5003754;28;20033;-68
2022/01/08 12:18:58;;;;;;;2.60;1.02;;;4.30;70.70;;;;;;5004328;28;20037;-69
2022/01/08 12:21:36;;;;;;;3.70;1.45;;;4.20;71.00;;;;;;5005607;28;20409;-70
2022/01/08 12:24:26;;;;;;;2.83;1.33;;;4.30;70.50;;;;;;5004178;28;20030;-70
2022/01/08 12:26:57;;;;;;;3.55;1.15;;;4.30;70.20;;;;;;5004691;28;20516;-70
2022/01/08 12:29:43;;;;;;;5.45;3.10;;;4.30;70.60;;;;;;4996760;28;20031;-70
2022/01/08 12:32:29;;;;;;;3.13;1.40;;;4.30;70.60;;;;;;4999120;28;20184;-70
2022/01/08 12:35:03;;;;;;;2.45;1.70;;;4.30;70.60;;;;;;5004388;28;20085;-67
2022/01/08 12:37:40;;;;;;;3.90;1.17;;;4.30;71.40;;;;;;5001908;28;20080;-67
2022/01/08 12:40:30;;;;;;;1.50;1.00;;;4.40;71.20;;;;;;5002280;28;20034;-69
2022/01/08 12:42:56;;;;;;;4.47;1.63;;;4.40;71.20;;;;;;5002741;28;20051;-69
2022/01/08 12:45:34;;;;;;;3.22;1.05;;;4.40;71.40;;;;;;4997992;28;20133;-69
2022/01/08 12:48:00;;;;;;;2.83;1.67;;;4.50;71.10;;;;;;4999365;28;20045;-70
2022/01/08 12:50:36;;;;;;;5.38;2.40;;;4.50;71.60;;;;;;5000451;28;20030;-70
2022/01/08 12:53:08;;;;;;;5.80;3.40;;;4.50;71.30;;;;;;5019327;28;20413;-69
2022/01/08 12:55:48;;;;;;;5.80;2.97;;;4.60;71.40;;;;;;4999846;28;20038;-69
2022/01/08 12:58:23;;;;;;;5.30;2.58;;;4.50;71.50;;;;;;5002276;28;20030;-69
2022/01/08 13:01:19;;;;;;;2.60;1.65;;;4.60;71.50;;;;;;5004490;28;20546;-68
2022/01/08 13:03:51;;;;;;;3.25;1.67;;;4.60;71.50;;;;;;5005432;28;20619;-69
2022/01/08 13:06:17;;;;;;;2.53;1.25;;;4.60;71.70;;;;;;5002852;28;20049;-69
2022/01/08 13:08:47;;;;;;;2.22;1.00;;;4.60;72.00;;;;;;5005198;28;20046;-69
2022/01/08 13:11:29;;;;;;;1.20;0.90;;;4.70;71.00;;;;;;4999883;28;20034;-69
2022/01/08 13:14:10;;;;;;;2.60;1.10;;;4.70;71.30;;;;;;4996239;28;20452;-68
2022/01/08 13:16:43;;;;;;;3.50;0.90;;;4.70;71.00;;;;;;5001654;28;20107;-66
2022/01/08 13:19:12;;;;;;;1.92;1.50;;;4.70;71.50;;;;;;5003532;28;20088;-69
2022/01/08 13:21:40;;;;;;;1.95;1.60;;;4.70;71.50;;;;;;5000411;28;20038;-68
2022/01/08 13:24:19;;;;;;;1.90;1.40;;;4.70;71.40;;;;;;5003398;28;20033;-69
2022/01/08 13:26:57;;;;;;;4.28;3.05;;;4.70;71.50;;;;;;4998627;28;20034;-69
2022/01/08 13:29:32;;;;;;;2.40;1.70;;;4.80;71.30;;;;;;5000977;28;20109;-69